Current Weather

Kirsch Muni

Sturgis, Michigan (KIRS)

Report from: Friday, April 19, 2024 5:35 AM EDT
Current time: Friday, April 19, 2024 5:50 AM EDT

Nearby weather – Weather history – Daily summaries
Weather forecast

Present weatherHeavy rain
Temperature7.6°C (45.7°F)
Wind chill5.0°C (41.0°F)
Dew point7.0°C (44.6°F)
Winds 8 kts (4.1 m/s, 9.2 mph) North-Northwest (330°)
Visibility3 mi. (4.8 km)
Clouds Ceiling: Overcast 700 ft. (213 m)
Altimeter29.94 in.Hg (1014 mB)
Precipitiation0.01 in. (0 mm)
Relative humidity96 %
Density altitude-767 ft. (-234 m)
Remarks Fully automated report
Automated weather observing station with precipitation discriminator
Flight conditions Instrument Meteorological Conditions
Raw dataKIRS 190935Z AUTO 33008KT 3SM +RA OVC007 08/07 A2994 RMK AO2 P0001 T00760070
An error has occurred. This application may no longer respond until reloaded. Reload 🗙